createdAt,value
2019-03-18T00:01:11.623Z,43.30
2019-03-18T00:03:41.342Z,43.30
2019-03-18T00:06:11.218Z,43.10
2019-03-18T00:08:41.255Z,43.30
2019-03-18T00:11:11.046Z,43.30
2019-03-18T00:13:40.809Z,43.30
2019-03-18T00:16:10.633Z,43.30
2019-03-18T00:18:40.455Z,43.10
2019-03-18T00:21:10.623Z,43.30
2019-03-18T00:23:40.527Z,43.10
2019-03-18T00:26:10.389Z,43.10
2019-03-18T00:28:40.603Z,43.10
2019-03-18T00:31:10.190Z,43.10
2019-03-18T00:33:39.829Z,43.00
2019-03-18T00:36:09.429Z,43.00
2019-03-18T00:38:39.145Z,43.00
2019-03-18T00:41:08.774Z,43.00
2019-03-18T00:43:38.430Z,43.10
2019-03-18T00:46:08.030Z,43.00
2019-03-18T00:48:37.763Z,43.00
2019-03-18T00:51:07.538Z,43.10
2019-03-18T00:53:37.267Z,43.10
2019-03-18T00:56:06.968Z,43.00
2019-03-18T00:58:36.802Z,43.00
2019-03-18T01:01:06.480Z,43.00
2019-03-18T01:03:36.218Z,43.00
2019-03-18T01:06:06.132Z,43.10
2019-03-18T01:08:35.761Z,43.10
2019-03-18T01:11:05.927Z,43.10
2019-03-18T01:13:35.924Z,43.10
2019-03-18T01:16:05.706Z,43.30
2019-03-18T01:18:35.361Z,43.10
2019-03-18T01:21:05.226Z,43.10
2019-03-18T01:23:34.866Z,43.10
2019-03-18T01:26:04.909Z,43.30
2019-03-18T01:28:34.538Z,43.30
2019-03-18T01:31:04.449Z,43.30
2019-03-18T01:33:34.321Z,43.30
2019-03-18T01:36:04.213Z,43.40
2019-03-18T01:38:33.914Z,43.40
2019-03-18T01:41:03.560Z,43.40
2019-03-18T01:43:33.266Z,43.30
2019-03-18T01:46:02.990Z,43.30
2019-03-18T01:48:32.604Z,43.30
2019-03-18T01:51:02.354Z,43.30
2019-03-18T01:53:32.270Z,43.40
2019-03-18T01:56:01.889Z,43.40
2019-03-18T01:58:32.157Z,43.40
2019-03-18T02:01:01.911Z,43.30
2019-03-18T02:03:50.955Z,43.30
2019-03-18T02:06:20.880Z,43.40
2019-03-18T02:08:50.499Z,43.40
2019-03-18T02:11:20.507Z,43.40
2019-03-18T02:13:50.162Z,43.40
2019-03-18T02:16:19.766Z,43.40
2019-03-18T02:18:49.499Z,43.40
2019-03-18T02:21:19.101Z,43.40
2019-03-18T02:23:48.866Z,43.40
2019-03-18T02:26:18.685Z,43.40
2019-03-18T02:28:48.303Z,43.60
2019-03-18T02:31:18.000Z,43.40
2019-03-18T02:33:47.740Z,43.40
2019-03-18T02:36:17.487Z,43.40
2019-03-18T02:38:47.142Z,43.60
2019-03-18T02:41:16.916Z,43.60
2019-03-18T02:43:46.727Z,43.60
2019-03-18T02:46:16.715Z,43.60
2019-03-18T02:48:46.338Z,43.60
2019-03-18T02:51:16.292Z,43.60
2019-03-18T02:53:46.010Z,43.70
2019-03-18T02:56:15.729Z,43.70
2019-03-18T02:58:45.500Z,43.60
2019-03-18T03:01:15.155Z,43.70
2019-03-18T03:03:44.755Z,43.70
2019-03-18T03:06:14.546Z,43.60
2019-03-18T03:08:44.357Z,43.40
2019-03-18T03:11:14.114Z,43.30
2019-03-18T03:13:43.844Z,43.10
2019-03-18T03:16:25.571Z,43.10
2019-03-18T03:18:45.098Z,43.10
2019-03-18T03:21:15.197Z,43.30
2019-03-18T03:23:44.877Z,43.10
2019-03-18T03:26:14.543Z,43.30
2019-03-18T03:28:44.440Z,43.10
2019-03-18T03:31:14.347Z,43.10
2019-03-18T03:33:44.511Z,43.10
2019-03-18T03:36:14.796Z,43.10
2019-03-18T03:38:45.024Z,43.10
2019-03-18T03:41:17.924Z,43.00
2019-03-18T03:43:46.327Z,43.00
2019-03-18T03:46:16.504Z,42.80
2019-03-18T03:48:46.629Z,42.80
2019-03-18T03:51:16.540Z,42.80
2019-03-18T03:53:46.388Z,42.80
2019-03-18T03:56:16.024Z,42.70
2019-03-18T03:58:46.289Z,43.00
2019-03-18T04:01:16.229Z,43.00
2019-03-18T04:03:46.201Z,43.00
2019-03-18T04:06:16.408Z,42.80
2019-03-18T04:08:46.773Z,42.80
2019-03-18T04:11:16.547Z,42.80
2019-03-18T04:13:46.249Z,42.80
2019-03-18T04:16:16.400Z,42.80
2019-03-18T04:18:46.275Z,42.80
2019-03-18T04:21:16.212Z,42.80
2019-03-18T04:23:45.811Z,42.80
2019-03-18T04:26:15.527Z,42.80
2019-03-18T04:28:45.241Z,42.80
2019-03-18T04:31:15.084Z,42.70
2019-03-18T04:33:44.751Z,42.70
2019-03-18T04:36:14.451Z,42.50
2019-03-18T04:38:44.095Z,42.50
2019-03-18T04:41:13.713Z,42.50
2019-03-18T04:43:43.534Z,42.50
2019-03-18T04:46:13.365Z,42.40
2019-03-18T04:48:43.267Z,42.50
2019-03-18T04:51:13.171Z,42.40
2019-03-18T04:53:43.169Z,42.10
2019-03-18T04:56:13.017Z,42.20
2019-03-18T04:58:42.648Z,42.20
2019-03-18T05:01:12.349Z,42.10
2019-03-18T05:03:42.451Z,41.90
2019-03-18T05:06:12.543Z,41.90
2019-03-18T05:08:42.181Z,41.80
2019-03-18T05:11:12.551Z,41.60
2019-03-18T05:13:42.267Z,41.60
2019-03-18T05:16:14.905Z,41.60
2019-03-18T05:18:45.549Z,41.30
2019-03-18T05:21:15.318Z,41.30
2019-03-18T05:23:45.258Z,41.30
2019-03-18T05:26:14.917Z,41.20
2019-03-18T05:28:44.696Z,41.00
2019-03-18T05:31:14.334Z,41.00
2019-03-18T05:33:44.459Z,41.00
2019-03-18T05:36:14.350Z,40.90
2019-03-18T05:38:44.164Z,40.70
2019-03-18T05:41:14.030Z,40.90
2019-03-18T05:43:43.825Z,41.00
2019-03-18T05:46:13.566Z,41.00
2019-03-18T05:48:44.920Z,41.20
2019-03-18T05:51:14.855Z,41.00
2019-03-18T05:53:45.011Z,41.00
2019-03-18T05:56:15.222Z,40.90
2019-03-18T05:58:45.152Z,40.70
2019-03-18T06:01:15.153Z,40.70
2019-03-18T06:03:44.865Z,40.70
2019-03-18T06:06:14.835Z,40.60
2019-03-18T06:08:44.594Z,40.60
2019-03-18T06:11:14.483Z,40.90
2019-03-18T06:13:44.403Z,40.70
2019-03-18T06:16:14.335Z,40.70
2019-03-18T06:18:44.369Z,40.90
2019-03-18T06:21:14.574Z,40.90
2019-03-18T06:23:44.597Z,40.60
2019-03-18T06:26:14.332Z,40.50
2019-03-18T06:28:44.157Z,40.50
2019-03-18T06:31:14.146Z,40.30
2019-03-18T06:33:44.220Z,40.20
2019-03-18T06:36:13.985Z,40.30
2019-03-18T06:38:43.543Z,40.30
2019-03-18T06:41:13.363Z,40.20
2019-03-18T06:43:43.495Z,40.30
2019-03-18T06:46:13.522Z,40.00
2019-03-18T06:48:43.366Z,40.00
2019-03-18T06:51:13.246Z,40.20
2019-03-18T06:53:43.396Z,40.20
2019-03-18T06:56:13.585Z,40.00
2019-03-18T06:58:43.286Z,39.90
2019-03-18T07:01:12.933Z,39.40
2019-03-18T07:03:42.848Z,39.10
2019-03-18T07:06:12.821Z,40.20
2019-03-18T07:08:42.433Z,40.20
2019-03-18T07:11:12.465Z,40.20
2019-03-18T07:13:42.328Z,39.40
2019-03-18T07:16:12.406Z,38.50
2019-03-18T07:18:42.239Z,37.90
2019-03-18T07:21:14.609Z,37.20
2019-03-18T07:23:43.428Z,36.50
2019-03-18T07:26:13.232Z,36.30
2019-03-18T07:28:43.147Z,36.30
2019-03-18T07:31:13.089Z,36.50
2019-03-18T07:33:42.947Z,36.50
2019-03-18T07:36:12.823Z,36.30
2019-03-18T07:38:42.618Z,36.00
2019-03-18T07:41:12.555Z,36.00
2019-03-18T07:43:42.421Z,36.00
2019-03-18T07:46:12.327Z,35.70
2019-03-18T07:48:41.940Z,35.70
2019-03-18T07:51:12.218Z,35.70
2019-03-18T07:53:42.110Z,35.70
2019-03-18T07:56:12.118Z,35.40
2019-03-18T07:58:42.268Z,35.30
2019-03-18T08:01:12.277Z,34.80
2019-03-18T08:04:01.614Z,34.40
2019-03-18T08:06:31.337Z,34.40
2019-03-18T08:09:01.274Z,34.70
2019-03-18T08:11:31.127Z,34.20
2019-03-18T08:14:00.722Z,34.10
2019-03-18T08:16:30.731Z,34.10
2019-03-18T08:19:00.549Z,34.20
2019-03-18T08:21:30.505Z,34.50
2019-03-18T08:24:00.355Z,34.40
2019-03-18T08:26:30.511Z,34.10
2019-03-18T08:29:01.678Z,33.70
2019-03-18T08:31:31.569Z,33.50
2019-03-18T08:34:01.545Z,33.50
2019-03-18T08:36:31.443Z,33.40
2019-03-18T08:39:01.398Z,33.40
2019-03-18T08:41:31.481Z,33.20
2019-03-18T08:44:01.118Z,32.90
2019-03-18T08:46:31.110Z,32.60
2019-03-18T08:49:00.742Z,32.60
2019-03-18T08:51:30.342Z,32.30
2019-03-18T08:54:00.355Z,32.30
2019-03-18T08:56:30.159Z,32.30
2019-03-18T08:58:59.871Z,31.90
2019-03-18T09:01:29.771Z,31.90
2019-03-18T09:03:59.496Z,31.90
2019-03-18T09:06:30.519Z,31.70
2019-03-18T09:09:00.323Z,31.70
2019-03-18T09:11:30.571Z,31.70
2019-03-18T09:14:00.520Z,31.60
2019-03-18T09:16:30.231Z,31.60
2019-03-18T09:19:08.550Z,31.40
2019-03-18T09:21:31.900Z,31.60
2019-03-18T09:24:01.843Z,31.60
2019-03-18T09:26:31.684Z,31.60
2019-03-18T09:29:01.599Z,31.60
2019-03-18T09:31:31.585Z,31.70
2019-03-18T09:34:01.383Z,31.60
2019-03-18T09:36:31.807Z,31.40
2019-03-18T09:39:02.087Z,31.00
2019-03-18T09:41:32.050Z,30.60
2019-03-18T09:44:02.122Z,30.60
2019-03-18T09:46:32.215Z,29.70
2019-03-18T09:49:02.120Z,29.60
2019-03-18T09:51:32.155Z,28.90
2019-03-18T09:54:02.141Z,28.70
2019-03-18T09:56:32.155Z,28.60
2019-03-18T09:59:02.560Z,28.50
2019-03-18T10:01:32.646Z,28.50
2019-03-18T10:04:02.588Z,28.50
2019-03-18T10:06:32.347Z,28.50
2019-03-18T10:09:02.038Z,28.40
2019-03-18T10:11:31.673Z,28.30
2019-03-18T10:14:01.287Z,28.30
2019-03-18T10:16:31.324Z,28.30
2019-03-18T10:19:00.953Z,28.30
2019-03-18T10:21:30.610Z,28.40
2019-03-18T10:24:00.671Z,28.30
2019-03-18T10:26:30.452Z,28.40
2019-03-18T10:29:00.291Z,28.40
2019-03-18T10:31:30.302Z,28.40
2019-03-18T10:33:59.917Z,28.50
2019-03-18T10:36:29.519Z,28.60
2019-03-18T10:38:59.250Z,28.60
2019-03-18T10:41:29.041Z,28.90
2019-03-18T10:43:58.673Z,28.80
2019-03-18T10:46:28.442Z,28.80
2019-03-18T10:48:58.144Z,28.40
2019-03-18T10:51:28.070Z,28.00
2019-03-18T10:53:57.800Z,27.80
2019-03-18T10:56:27.406Z,27.70
2019-03-18T10:58:57.108Z,27.50
2019-03-18T11:01:26.722Z,27.50
2019-03-18T11:03:56.430Z,27.40
2019-03-18T11:06:26.538Z,27.50
2019-03-18T11:08:56.167Z,27.50
2019-03-18T11:11:27.158Z,27.40
2019-03-18T11:13:56.794Z,27.50
2019-03-18T11:16:26.493Z,27.70
2019-03-18T11:18:56.134Z,27.90
2019-03-18T11:21:26.120Z,28.00
2019-03-18T11:23:55.803Z,28.20
2019-03-18T11:26:25.954Z,28.40
2019-03-18T11:28:55.871Z,28.60
2019-03-18T11:31:25.503Z,28.80
2019-03-18T11:33:55.335Z,28.80
2019-03-18T11:36:24.974Z,28.60
2019-03-18T11:38:55.011Z,28.80
2019-03-18T11:41:24.788Z,28.90
2019-03-18T11:43:57.099Z,28.60
2019-03-18T11:46:26.790Z,28.50
2019-03-18T11:48:56.405Z,28.20
2019-03-18T11:51:26.056Z,27.70
2019-03-18T11:53:55.755Z,27.50
2019-03-18T11:56:25.315Z,27.10
2019-03-18T11:58:54.993Z,26.90
2019-03-18T12:01:24.777Z,26.70
2019-03-18T12:03:54.482Z,26.90
2019-03-18T12:06:24.178Z,26.80
2019-03-18T12:08:53.868Z,26.80
2019-03-18T12:11:23.617Z,26.80
2019-03-18T12:13:53.354Z,26.80
2019-03-18T12:16:23.028Z,26.70
2019-03-18T12:18:52.799Z,26.60
2019-03-18T12:21:22.402Z,26.60
2019-03-18T12:23:52.160Z,26.50
2019-03-18T12:26:21.849Z,26.10
2019-03-18T12:28:51.558Z,25.90
2019-03-18T12:31:21.476Z,25.40
2019-03-18T12:33:51.081Z,25.30
2019-03-18T12:36:21.049Z,24.80
2019-03-18T12:38:50.681Z,24.60
2019-03-18T12:41:20.424Z,24.60
2019-03-18T12:43:50.080Z,24.80
2019-03-18T12:46:19.871Z,25.00
2019-03-18T12:48:49.773Z,25.30
2019-03-18T12:51:19.523Z,25.80
2019-03-18T12:53:49.142Z,26.00
2019-03-18T12:56:19.045Z,26.10
2019-03-18T12:58:48.825Z,26.10
2019-03-18T13:01:19.123Z,26.10
2019-03-18T13:03:49.135Z,26.10
2019-03-18T13:06:18.764Z,26.20
2019-03-18T13:08:48.371Z,26.40
2019-03-18T13:11:18.039Z,26.40
2019-03-18T13:13:47.979Z,26.50
2019-03-18T13:16:18.264Z,26.50
2019-03-18T13:18:48.133Z,26.60
2019-03-18T13:21:17.774Z,26.40
2019-03-18T13:23:47.509Z,26.30
2019-03-18T13:26:17.545Z,26.20
2019-03-18T13:28:47.148Z,25.80
2019-03-18T13:31:17.064Z,25.80
2019-03-18T13:33:46.798Z,25.80
2019-03-18T13:36:16.503Z,25.50
2019-03-18T13:38:46.178Z,25.30
2019-03-18T13:41:15.922Z,25.10
2019-03-18T13:43:45.730Z,25.10
2019-03-18T13:46:18.369Z,25.10
2019-03-18T13:48:46.813Z,24.80
2019-03-18T13:51:21.030Z,24.90
2019-03-18T13:53:48.019Z,24.80
2019-03-18T13:56:17.684Z,24.80
2019-03-18T13:58:47.370Z,24.90
2019-03-18T14:01:17.009Z,25.10
2019-03-18T14:03:46.982Z,25.20
2019-03-18T14:06:16.674Z,25.60
2019-03-18T14:08:46.328Z,25.80
2019-03-18T14:11:16.053Z,25.90
2019-03-18T14:13:45.690Z,26.00
2019-03-18T14:16:15.490Z,25.80
2019-03-18T14:18:45.124Z,25.90
2019-03-18T14:21:14.772Z,26.00
2019-03-18T14:23:44.372Z,25.90
2019-03-18T14:26:14.068Z,25.80
2019-03-18T14:28:43.688Z,25.80
2019-03-18T14:31:13.378Z,25.80
2019-03-18T14:33:43.003Z,25.80
2019-03-18T14:36:12.615Z,25.50
2019-03-18T14:38:42.415Z,25.50
2019-03-18T14:41:12.055Z,25.30
2019-03-18T14:43:41.820Z,25.10
2019-03-18T14:46:11.545Z,24.90
2019-03-18T14:48:41.180Z,24.70
2019-03-18T14:51:10.866Z,24.80
2019-03-18T14:53:40.544Z,24.60
2019-03-18T14:56:10.148Z,24.60
2019-03-18T14:58:59.235Z,24.50
2019-03-18T15:01:28.904Z,24.30
2019-03-18T15:03:58.542Z,24.30
2019-03-18T15:06:28.572Z,24.50
2019-03-18T15:08:58.234Z,24.50
2019-03-18T15:11:28.001Z,24.60
2019-03-18T15:13:57.682Z,24.60
2019-03-18T15:16:27.347Z,24.60
2019-03-18T15:18:56.969Z,24.50
2019-03-18T15:21:26.567Z,24.50
2019-03-18T15:23:56.281Z,24.40
2019-03-18T15:26:25.918Z,24.40
2019-03-18T15:28:55.541Z,24.20
2019-03-18T15:31:25.199Z,24.10
2019-03-18T15:33:54.865Z,24.00
2019-03-18T15:36:24.658Z,24.10
2019-03-18T15:38:54.260Z,24.10
2019-03-18T15:41:24.401Z,24.10
2019-03-18T15:43:54.006Z,24.10
2019-03-18T15:46:23.692Z,24.20
2019-03-18T15:48:53.327Z,24.40
2019-03-18T15:51:22.958Z,24.50
2019-03-18T15:54:12.067Z,24.60
2019-03-18T15:56:41.664Z,24.80
2019-03-18T15:59:11.351Z,24.90
2019-03-18T16:01:41.119Z,25.00
2019-03-18T16:04:10.757Z,25.20
2019-03-18T16:06:40.414Z,25.30
2019-03-18T16:09:10.051Z,25.40
2019-03-18T16:11:39.735Z,25.30
2019-03-18T16:14:09.467Z,25.40
2019-03-18T16:16:39.141Z,25.60
2019-03-18T16:19:08.832Z,25.60
2019-03-18T16:21:38.527Z,25.70
2019-03-18T16:24:08.086Z,25.80
2019-03-18T16:26:37.794Z,25.90
2019-03-18T16:29:07.725Z,25.90
2019-03-18T16:31:37.369Z,26.20
2019-03-18T16:34:07.106Z,26.40
2019-03-18T16:36:36.751Z,26.60
2019-03-18T16:39:06.842Z,26.80
2019-03-18T16:41:36.530Z,27.10
2019-03-18T16:44:06.223Z,27.40
2019-03-18T16:46:35.887Z,27.60
2019-03-18T16:49:05.524Z,27.80
2019-03-18T16:51:35.176Z,28.10
2019-03-18T16:54:04.838Z,28.60
2019-03-18T16:56:34.569Z,28.90
2019-03-18T16:59:04.236Z,29.20
2019-03-18T17:01:33.935Z,29.40
2019-03-18T17:04:03.553Z,29.60
2019-03-18T17:06:33.166Z,29.90
2019-03-18T17:09:03.177Z,30.40
2019-03-18T17:11:32.804Z,30.70
2019-03-18T17:14:02.526Z,31.00
2019-03-18T17:16:32.203Z,31.40
2019-03-18T17:19:01.801Z,31.90
2019-03-18T17:21:31.834Z,32.20
2019-03-18T17:24:01.462Z,32.50
2019-03-18T17:26:31.668Z,32.90
2019-03-18T17:29:01.688Z,33.40
2019-03-18T17:31:31.844Z,33.80
2019-03-18T17:34:01.978Z,34.10
2019-03-18T17:36:31.997Z,34.40
2019-03-18T17:39:21.397Z,34.80
2019-03-18T17:41:51.443Z,35.10
2019-03-18T17:44:21.134Z,35.30
2019-03-18T17:46:50.933Z,35.40
2019-03-18T17:49:20.710Z,35.70
2019-03-18T17:51:50.406Z,35.70
2019-03-18T17:54:20.082Z,36.00
2019-03-18T17:56:50.165Z,36.00
2019-03-18T17:59:20.630Z,36.50
2019-03-18T18:01:50.934Z,36.60
2019-03-18T18:04:21.186Z,36.80
2019-03-18T18:06:51.538Z,36.90
2019-03-18T18:09:21.709Z,37.10
2019-03-18T18:11:51.916Z,37.10
2019-03-18T18:14:22.082Z,37.40
2019-03-18T18:16:52.085Z,37.50
2019-03-18T18:19:22.109Z,37.90
2019-03-18T18:21:52.232Z,38.10
2019-03-18T18:24:21.884Z,38.40
2019-03-18T18:26:51.505Z,38.50
2019-03-18T18:29:21.246Z,38.70
2019-03-18T18:31:50.839Z,38.70
2019-03-18T18:34:20.587Z,39.00
2019-03-18T18:36:50.260Z,39.00
2019-03-18T18:39:19.887Z,39.10
2019-03-18T18:41:49.915Z,39.30
2019-03-18T18:44:19.531Z,39.40
2019-03-18T18:46:49.266Z,39.40
2019-03-18T18:49:19.285Z,39.40
2019-03-18T18:51:49.267Z,39.60
2019-03-18T18:54:19.276Z,39.60
2019-03-18T18:56:49.447Z,39.60
2019-03-18T18:59:19.433Z,39.70
2019-03-18T19:01:49.543Z,39.70
2019-03-18T19:04:19.684Z,40.00
2019-03-18T19:06:49.697Z,39.90
2019-03-18T19:09:19.255Z,40.00
2019-03-18T19:11:48.922Z,40.00
2019-03-18T19:14:18.617Z,40.00
2019-03-18T19:16:48.183Z,40.00
2019-03-18T19:19:18.187Z,40.00
2019-03-18T19:21:47.813Z,40.20
2019-03-18T19:24:18.069Z,40.20
2019-03-18T19:26:47.653Z,40.30
2019-03-18T19:29:17.661Z,45.50
2019-03-18T19:31:47.790Z,52.00
2019-03-18T19:34:17.886Z,52.10
2019-03-18T19:36:47.939Z,49.20
2019-03-18T19:39:17.630Z,46.70
2019-03-18T19:41:47.788Z,44.90
2019-03-18T19:44:17.851Z,43.90
2019-03-18T19:46:48.006Z,43.10
2019-03-18T19:49:18.030Z,42.70
2019-03-18T19:51:48.167Z,42.40
2019-03-18T19:54:18.254Z,42.10
2019-03-18T19:56:48.239Z,41.90
2019-03-18T19:59:18.336Z,41.80
2019-03-18T20:01:47.942Z,41.80
2019-03-18T20:04:18.186Z,41.90
2019-03-18T20:06:48.301Z,44.60
2019-03-18T20:09:18.382Z,43.70
2019-03-18T20:11:49.039Z,43.00
2019-03-18T20:14:19.118Z,42.70
2019-03-18T20:16:49.257Z,42.50
2019-03-18T20:19:19.224Z,42.40
2019-03-18T20:21:49.196Z,42.20
2019-03-18T20:24:19.361Z,42.20
2019-03-18T20:26:49.451Z,42.20
2019-03-18T20:29:19.482Z,42.10
2019-03-18T20:31:49.443Z,41.90
2019-03-18T20:34:21.407Z,41.90
2019-03-18T20:36:50.797Z,42.10
2019-03-18T20:39:20.514Z,42.10
2019-03-18T20:41:50.641Z,42.10
2019-03-18T20:44:20.404Z,41.90
2019-03-18T20:46:50.043Z,42.10
2019-03-18T20:49:20.127Z,41.90
2019-03-18T20:51:49.909Z,41.90
2019-03-18T20:54:19.861Z,42.20
2019-03-18T20:56:49.866Z,42.10
2019-03-18T20:59:19.676Z,42.10
2019-03-18T21:01:49.756Z,42.10
2019-03-18T21:04:19.815Z,42.10
2019-03-18T21:06:49.951Z,42.10
2019-03-18T21:09:20.061Z,42.20
2019-03-18T21:11:50.186Z,42.20
2019-03-18T21:14:20.167Z,42.20
2019-03-18T21:16:50.122Z,42.20
2019-03-18T21:19:20.270Z,42.40
2019-03-18T21:21:50.427Z,42.50
2019-03-18T21:24:23.494Z,42.50
2019-03-18T21:26:52.232Z,42.50
2019-03-18T21:29:22.475Z,42.40
2019-03-18T21:31:52.637Z,42.40
2019-03-18T21:34:22.526Z,42.40
2019-03-18T21:36:52.559Z,42.20
2019-03-18T21:39:22.695Z,42.20
2019-03-18T21:41:52.929Z,42.10
2019-03-18T21:44:23.072Z,42.10
2019-03-18T21:46:53.468Z,42.10
2019-03-18T21:49:23.480Z,42.20
2019-03-18T21:51:53.511Z,42.20
2019-03-18T21:54:33.424Z,42.40
2019-03-18T21:56:54.860Z,42.40
2019-03-18T21:59:24.896Z,42.40
2019-03-18T22:01:56.147Z,42.50
2019-03-18T22:04:25.888Z,42.70
2019-03-18T22:06:55.638Z,52.10
2019-03-18T22:09:25.334Z,56.60
2019-03-18T22:11:55.028Z,55.70
2019-03-18T22:14:24.750Z,54.60
2019-03-18T22:16:54.707Z,50.80
2019-03-18T22:19:25.284Z,48.30
2019-03-18T22:21:54.923Z,46.70
2019-03-18T22:24:24.560Z,45.60
2019-03-18T22:26:54.262Z,44.70
2019-03-18T22:29:24.002Z,44.30
2019-03-18T22:31:53.645Z,44.00
2019-03-18T22:34:23.267Z,43.70
2019-03-18T22:36:52.858Z,43.40
2019-03-18T22:39:22.561Z,43.10
2019-03-18T22:41:52.172Z,43.00
2019-03-18T22:44:22.137Z,43.00
2019-03-18T22:46:51.774Z,43.00
2019-03-18T22:49:21.757Z,42.80
2019-03-18T22:51:51.436Z,42.80
2019-03-18T22:54:21.156Z,42.80
2019-03-18T22:56:51.606Z,42.80
2019-03-18T22:59:21.267Z,42.80
2019-03-18T23:01:51.437Z,42.80
2019-03-18T23:04:21.176Z,42.80
2019-03-18T23:06:50.728Z,42.80
2019-03-18T23:09:20.396Z,42.70
2019-03-18T23:11:50.004Z,42.80
2019-03-18T23:14:19.689Z,42.70
2019-03-18T23:16:49.696Z,42.70
2019-03-18T23:19:21.042Z,42.80
2019-03-18T23:21:50.971Z,42.70
2019-03-18T23:24:20.584Z,42.70
2019-03-18T23:26:50.356Z,42.70
2019-03-18T23:29:20.139Z,42.70
2019-03-18T23:31:49.943Z,42.70
2019-03-18T23:34:19.550Z,42.70
2019-03-18T23:36:49.230Z,42.70
2019-03-18T23:39:18.939Z,42.50
2019-03-18T23:41:48.644Z,42.50
2019-03-18T23:44:18.269Z,42.50
2019-03-18T23:46:47.919Z,42.50
2019-03-18T23:49:17.558Z,42.50
2019-03-18T23:51:47.186Z,42.50
2019-03-18T23:54:16.850Z,42.50
2019-03-18T23:56:46.445Z,42.50
2019-03-18T23:59:16.135Z,42.70
